Burr, NE (68324)

4:14 PM CST on February 08, 2016 (GMT -0600)
Kosiba Home | | Change Station
CLOSE
Current Station
Personal Weather Station
Location: Syracuse, NE
Elevation: 1119 ft
Nearby Weather Stations
Active Advisory: Wind Advisory

Elev 1119 ft 40.63 °N, 96.22 °W | Updated 9 minutes ago

Partly Cloudy
Partly Cloudy
33.1 °F
Feels Like 20 °F
N
23.8
Wind Variable Wind from WNW

Today
High -- | Low -- °F
--% Chance of Precip.
Yesterday
High -- | Low -- °F
Precip. -- in
Pressure 30.09 in
Visibility 10.0 miles
Clouds Scattered Clouds 3700 ft
Scattered Clouds 4400 ft
Scattered Clouds 5000 ft
Windchill 20 °F
Dew Point 18 °F
Humidity 54%
Rainfall 17.16 in
Snow Depth Not available.
7:27 AM 5:51 PM
New Moon, 0% visible
METAR KAFK 082155Z AUTO 33027G34KT 10SM SCT037 SCT044 SCT050 00/M08 A3009 RMK AO2 T00001080
Pressure 30.09 in
Visibility 10.0 miles
Clouds Scattered Clouds 3700 ft
Scattered Clouds 4400 ft
Scattered Clouds 5000 ft
Windchill 20 °F
Dew Point 18 °F
Humidity 54%
Rainfall 17.16 in
Snow Depth Not available.
7:27 AM 5:51 PM
New Moon, 0% visible
METAR KAFK 082155Z AUTO 33027G34KT 10SM SCT037 SCT044 SCT050 00/M08 A3009 RMK AO2 T00001080

10-Day Weather Forecast

Almanac

Astronomy

Feb. 08, 2016 Rise Set
Actual Time
Civil Twilight
Nautical Twilight
Astronomical Twilight
Moon
Length of Visible Light
Length of Day
Tomorrow will be .
, % of the Moon is Illuminated

Today's Extremes

State Highs State Lows

Community

WunderPhotos

Upload Photos

1,891,516 photos uploaded!

WunderBlog® & News

Nearby

Air Quality

  Air Quality AQ Index Pollutant
Not available.

Snow Depth

Station Depth Elevation

Earthquake Activity

City Distance Mag. Time & Date
Minimum magnitude displayed is 2.5.

Coastal Water Temperatures

Place Temperature

Stations

Nearby Weather Stations

Station Location Temp. Windchill Dew Point Humidity Wind Precip. Elev Updated Type
                   

Watches & Warnings

Wind Advisory
Issued: 11:43 AM CST Feb. 8, 2016 – National Weather Service

... Wind Advisory remains in effect until 6 PM CST this evening...

* timing... strong northwest winds will continue through this
afternoon before diminishing by early evening.

* Winds... northwest winds of 25 to 35 mph with gusts to around
or over 45 mph.

* Impacts... winds of this magnitude will be hazardous to
motorists... especially those with high profile vehicles. In
addition... areas of blowing snow will create hazardous travel
conditions in parts of the area.

Precautionary/preparedness actions...

A Wind Advisory means that sustained wind speeds between 30 to
39 mph or gusts between 45 to 57 mph are expected. Winds this
strong can make driving difficult... especially for high profile
vehicles. Use extra caution.